< < Back
Terminal Aerodrome Forecast


Current Version              Previous Versions:   1  2  3  4  5  6  7  8  9  

Terminal Aerodrome Forecast

640
FTUS42 KCAE 250353 AAB
TAFAGS
TAF AMD
KAGS 250353Z 2504/2524 VRB03KT 3SM BR SKC
      TEMPO 2504/2508 1/2SM FG
     FM250800 00000KT 1/4SM FG VV002
     FM251300 06005KT P6SM SCT040=

Latest METAR

134
SAUS70 KWBC 250700 RRB
MTRAGS
METAR KAGS 250653Z AUTO 00000KT 1 1/2SM BR BKN003 18/18 A3004 RMK AO2
SLP169 T01830183


USA.gov is the U.S. government's official web portal to all federal, state and local government web resources and services.